createdAt,value
2022-08-17T00:01:56.905Z,72.23
2022-08-17T00:04:50.611Z,72.36
2022-08-17T00:07:39.346Z,72.71
2022-08-17T00:10:28.205Z,72.73
2022-08-17T00:13:21.463Z,73.15
2022-08-17T00:16:17.320Z,73.22
2022-08-17T00:19:08.856Z,73.69
2022-08-17T00:22:31.815Z,73.57
2022-08-17T00:25:12.175Z,74.13
2022-08-17T00:28:00.785Z,74.68
2022-08-17T00:30:52.935Z,74.41
2022-08-17T00:33:45.284Z,74.69
2022-08-17T00:36:33.895Z,75.15
2022-08-17T00:39:22.431Z,76.29
2022-08-17T00:42:14.541Z,76.31
2022-08-17T00:45:04.412Z,76.02
2022-08-17T00:47:52.949Z,76.85
2022-08-17T00:50:46.540Z,77.39
2022-08-17T00:53:36.728Z,77.61
2022-08-17T00:56:30.341Z,77.92
2022-08-17T00:59:22.007Z,78.41
2022-08-17T01:02:11.499Z,78.85
2022-08-17T01:05:00.060Z,79.23
2022-08-17T01:07:51.135Z,79.01
2022-08-17T01:10:57.279Z,79.22
2022-08-17T01:13:50.248Z,80.09
2022-08-17T01:16:39.219Z,79.96
2022-08-17T01:19:30.708Z,80.44
2022-08-17T01:22:23.248Z,80.76
2022-08-17T01:25:12.863Z,80.83
2022-08-17T01:28:01.552Z,80.79
2022-08-17T01:30:58.541Z,81.22
2022-08-17T01:33:47.830Z,81.37
2022-08-17T01:36:36.654Z,82.25
2022-08-17T01:39:31.540Z,82.25
2022-08-17T01:42:24.526Z,82.84
2022-08-17T01:45:16.651Z,83.88
2022-08-17T01:48:05.740Z,83.87
2022-08-17T01:50:54.203Z,83.66
2022-08-17T01:53:46.109Z,83.10
2022-08-17T01:56:38.595Z,82.78
2022-08-17T01:59:27.348Z,82.15
2022-08-17T02:02:30.573Z,81.81
2022-08-17T02:05:20.539Z,82.04
2022-08-17T02:08:09.111Z,81.63
2022-08-17T02:11:11.789Z,81.68
2022-08-17T02:14:04.078Z,81.67
2022-08-17T02:16:53.205Z,81.42
2022-08-17T02:19:41.825Z,81.74
2022-08-17T02:22:30.998Z,81.80
2022-08-17T02:25:21.136Z,82.27
2022-08-17T02:28:09.793Z,82.89
2022-08-17T02:31:05.217Z,83.15
2022-08-17T02:34:03.331Z,83.47
2022-08-17T02:36:54.057Z,84.37
2022-08-17T02:39:42.643Z,84.00
2022-08-17T02:42:33.795Z,84.13
2022-08-17T02:45:24.354Z,84.41
2022-08-17T02:48:14.220Z,84.62
2022-08-17T02:51:19.264Z,84.97
2022-08-17T02:54:39.267Z,84.85
2022-08-17T02:57:16.227Z,85.81
2022-08-17T03:00:06.151Z,86.13
2022-08-17T03:02:57.781Z,85.79
2022-08-17T03:05:51.200Z,86.21
2022-08-17T03:08:40.534Z,87.45
2022-08-17T03:11:29.142Z,87.51
2022-08-17T03:14:17.727Z,88.85
2022-08-17T03:17:06.768Z,87.34
2022-08-17T03:19:55.264Z,86.67
2022-08-17T03:22:53.383Z,87.43
2022-08-17T03:25:44.068Z,88.15
2022-08-17T03:28:32.665Z,88.20
2022-08-17T03:31:25.786Z,88.73
2022-08-17T03:34:14.587Z,87.38
2022-08-17T03:37:03.110Z,86.23
2022-08-17T03:39:54.228Z,86.22
2022-08-17T03:42:43.785Z,85.37
2022-08-17T03:45:49.779Z,85.92
2022-08-17T03:48:57.873Z,84.22
2022-08-17T03:52:04.002Z,83.63
2022-08-17T03:55:11.599Z,83.52
2022-08-17T03:58:00.257Z,83.46
2022-08-17T04:00:49.109Z,82.97
2022-08-17T04:03:37.638Z,82.26
2022-08-17T04:06:26.202Z,82.22
2022-08-17T04:09:15.078Z,82.32
2022-08-17T04:12:05.923Z,81.97
2022-08-17T04:14:55.342Z,82.02
2022-08-17T04:17:44.751Z,81.69
2022-08-17T04:20:33.327Z,81.55
2022-08-17T04:23:21.877Z,81.05
2022-08-17T04:26:11.013Z,80.57
2022-08-17T04:29:21.437Z,80.62
2022-08-17T04:32:10.177Z,80.16
2022-08-17T04:34:59.007Z,79.30
2022-08-17T04:37:47.478Z,79.52
2022-08-17T04:40:53.900Z,80.11
2022-08-17T04:43:43.975Z,81.60
2022-08-17T04:46:35.630Z,82.77
2022-08-17T04:49:24.204Z,82.65
2022-08-17T04:52:29.523Z,83.00
2022-08-17T04:55:21.367Z,82.68
2022-08-17T04:58:10.325Z,82.38
2022-08-17T05:00:58.883Z,82.69
2022-08-17T05:03:49.040Z,82.59
2022-08-17T05:06:37.631Z,82.60
2022-08-17T05:09:26.100Z,82.23
2022-08-17T05:12:16.583Z,82.33
2022-08-17T05:15:05.951Z,81.71
2022-08-17T05:17:54.430Z,81.77
2022-08-17T05:20:47.726Z,81.57
2022-08-17T05:23:42.813Z,81.63
2022-08-17T05:26:31.910Z,80.93
2022-08-17T05:29:33.637Z,80.80
2022-08-17T05:32:39.247Z,80.49
2022-08-17T05:35:30.368Z,80.49
2022-08-17T05:38:22.084Z,80.63
2022-08-17T05:41:10.917Z,79.43
2022-08-17T05:43:59.432Z,79.75
2022-08-17T05:46:54.280Z,79.47
2022-08-17T05:49:42.789Z,78.94
2022-08-17T05:52:35.881Z,79.56
2022-08-17T05:55:31.770Z,79.34
2022-08-17T05:58:24.599Z,79.04
2022-08-17T06:01:18.972Z,78.78
2022-08-17T06:04:17.886Z,78.32
2022-08-17T06:07:11.490Z,77.46
2022-08-17T06:10:14.607Z,76.12
2022-08-17T06:13:11.293Z,75.22
2022-08-17T06:16:03.588Z,73.63
2022-08-17T06:18:57.347Z,73.90
2022-08-17T06:21:48.700Z,74.19
2022-08-17T06:24:39.852Z,74.20
2022-08-17T06:27:32.655Z,73.03
2022-08-17T06:30:25.774Z,72.69
2022-08-17T06:33:19.449Z,72.50
2022-08-17T06:36:22.336Z,71.75
2022-08-17T06:39:26.444Z,71.40
2022-08-17T06:42:54.686Z,71.29
2022-08-17T06:45:37.414Z,70.69
2022-08-17T06:48:29.388Z,70.54
2022-08-17T06:51:22.099Z,70.55
2022-08-17T06:54:16.552Z,71.49
2022-08-17T06:57:13.376Z,71.70
2022-08-17T07:00:05.965Z,71.31
2022-08-17T07:03:02.180Z,71.42
2022-08-17T07:05:53.371Z,71.66
2022-08-17T07:08:50.955Z,70.52
2022-08-17T07:11:41.985Z,70.46
2022-08-17T07:14:36.554Z,70.97
2022-08-17T07:17:46.636Z,70.46
2022-08-17T07:20:37.546Z,70.19
2022-08-17T07:23:33.897Z,69.92
2022-08-17T07:26:24.242Z,69.14
2022-08-17T07:29:17.835Z,68.77
2022-08-17T07:32:09.060Z,67.62
2022-08-17T07:35:11.345Z,67.50
2022-08-17T07:38:25.329Z,65.57
2022-08-17T07:41:14.600Z,65.72
2022-08-17T07:44:03.233Z,65.08
2022-08-17T07:47:11.186Z,64.13
2022-08-17T07:49:59.776Z,61.63
2022-08-17T07:52:52.257Z,61.12
2022-08-17T07:55:42.922Z,59.98
2022-08-17T07:58:31.504Z,60.19
2022-08-17T08:01:20.062Z,60.30
2022-08-17T08:04:59.272Z,61.38
2022-08-17T08:07:40.086Z,60.32
2022-08-17T08:10:33.479Z,60.54
2022-08-17T08:13:27.885Z,59.96
2022-08-17T08:16:25.281Z,59.25
2022-08-17T08:19:20.887Z,59.96
2022-08-17T08:22:11.449Z,60.12
2022-08-17T08:25:08.477Z,60.28
2022-08-17T08:28:16.977Z,60.16
2022-08-17T08:31:13.654Z,60.57
2022-08-17T08:34:53.494Z,61.73
2022-08-17T08:37:50.942Z,63.70
2022-08-17T08:41:02.774Z,65.44
2022-08-17T08:44:00.722Z,65.10
2022-08-17T08:46:57.689Z,65.72
2022-08-17T08:50:05.464Z,66.76
2022-08-17T08:53:14.254Z,66.58
2022-08-17T08:56:06.395Z,66.01
2022-08-17T08:59:00.125Z,64.10
2022-08-17T09:01:59.729Z,63.75
2022-08-17T09:05:13.931Z,61.04
2022-08-17T09:08:07.586Z,61.17
2022-08-17T09:11:01.175Z,62.51
2022-08-17T09:13:57.122Z,63.00
2022-08-17T09:16:53.546Z,61.49
2022-08-17T09:19:46.103Z,61.45
2022-08-17T09:22:37.440Z,61.69
2022-08-17T09:25:29.374Z,61.70
2022-08-17T09:28:20.293Z,61.56
2022-08-17T09:31:10.370Z,60.94
2022-08-17T09:34:01.621Z,60.47
2022-08-17T09:36:55.838Z,61.58
2022-08-17T09:39:47.942Z,61.06
2022-08-17T09:42:44.553Z,60.90
2022-08-17T09:45:36.394Z,60.42
2022-08-17T09:48:32.546Z,61.86
2022-08-17T09:51:25.096Z,64.18
2022-08-17T09:54:38.587Z,65.91
2022-08-17T09:57:38.761Z,67.72
2022-08-17T10:00:31.243Z,67.21
2022-08-17T10:03:41.270Z,69.08
2022-08-17T10:06:34.390Z,71.91
2022-08-17T10:09:30.989Z,72.47
2022-08-17T10:12:30.199Z,74.66
2022-08-17T10:15:25.237Z,76.09
2022-08-17T10:18:31.954Z,78.32
2022-08-17T10:21:40.563Z,79.45
2022-08-17T10:25:21.906Z,80.63
2022-08-17T10:28:02.083Z,81.27
2022-08-17T10:31:10.437Z,81.14
2022-08-17T10:34:20.623Z,79.59
2022-08-17T10:37:37.994Z,75.63
2022-08-17T10:40:38.474Z,73.07
2022-08-17T10:43:34.870Z,71.24
2022-08-17T10:46:31.007Z,67.91
2022-08-17T10:49:27.298Z,67.71
2022-08-17T10:52:48.600Z,66.73
2022-08-17T10:55:41.484Z,68.45
2022-08-17T10:58:38.765Z,67.80
2022-08-17T11:02:06.118Z,68.85
2022-08-17T11:05:16.861Z,68.34
2022-08-17T11:08:38.337Z,68.29
2022-08-17T11:11:54.457Z,69.35
2022-08-17T11:15:00.331Z,66.77
2022-08-17T11:18:18.325Z,67.55
2022-08-17T11:21:30.756Z,67.89
2022-08-17T11:24:23.093Z,66.61
2022-08-17T11:27:25.273Z,66.10
2022-08-17T11:30:15.709Z,63.89
2022-08-17T11:33:56.197Z,62.79
2022-08-17T11:37:20.787Z,61.31
2022-08-17T11:40:35.980Z,61.01
2022-08-17T11:43:55.363Z,60.71
2022-08-17T11:47:17.465Z,60.99
2022-08-17T11:51:01.325Z,60.53
2022-08-17T11:58:01.511Z,57.88
2022-08-17T12:00:56.351Z,57.59
2022-08-17T12:03:53.980Z,57.25
2022-08-17T12:06:47.955Z,57.24
2022-08-17T12:09:39.764Z,57.59
2022-08-17T12:12:33.379Z,58.13
2022-08-17T12:15:28.764Z,58.25
2022-08-17T12:18:21.888Z,58.84
2022-08-17T12:21:20.965Z,59.08
2022-08-17T12:24:19.787Z,59.40
2022-08-17T12:27:10.933Z,59.04
2022-08-17T12:30:05.600Z,58.43
2022-08-17T12:32:54.532Z,57.83
2022-08-17T12:35:43.389Z,57.69
2022-08-17T12:38:35.934Z,56.24
2022-08-17T12:41:36.783Z,55.35
2022-08-17T12:44:26.966Z,53.79
2022-08-17T12:47:22.281Z,52.84
2022-08-17T12:50:28.600Z,53.15
2022-08-17T12:53:21.818Z,52.83
2022-08-17T12:56:13.346Z,51.75
2022-08-17T12:59:02.445Z,50.62
2022-08-17T13:01:51.875Z,48.57
2022-08-17T13:04:40.867Z,48.61
2022-08-17T13:07:41.977Z,47.85
2022-08-17T13:10:33.443Z,47.52
2022-08-17T13:13:24.907Z,47.85
2022-08-17T13:16:18.534Z,47.34
2022-08-17T13:19:09.113Z,48.39
2022-08-17T13:22:00.886Z,46.69
2022-08-17T13:24:54.814Z,46.18
2022-08-17T13:27:44.157Z,45.74
2022-08-17T13:30:34.201Z,45.20
2022-08-17T13:33:44.735Z,44.70
2022-08-17T13:36:33.941Z,42.91
2022-08-17T13:39:24.339Z,42.15
2022-08-17T13:42:31.380Z,42.13
2022-08-17T13:45:51.374Z,43.25
2022-08-17T13:48:40.121Z,43.34
2022-08-17T13:51:31.908Z,42.15
2022-08-17T13:54:25.931Z,41.60
2022-08-17T13:57:21.870Z,41.77
2022-08-17T14:00:17.420Z,37.59
2022-08-17T14:03:07.420Z,38.47
2022-08-17T14:05:55.969Z,40.08
2022-08-17T14:14:23.595Z,40.79
2022-08-17T14:17:12.636Z,40.96
2022-08-17T14:20:02.671Z,39.80
2022-08-17T14:22:53.163Z,39.29
2022-08-17T14:25:41.741Z,39.01
2022-08-17T14:28:30.272Z,39.25
2022-08-17T14:31:20.594Z,38.75
2022-08-17T14:34:10.705Z,38.46
2022-08-17T14:37:00.642Z,38.28
2022-08-17T14:39:49.490Z,37.98
2022-08-17T14:42:39.870Z,37.65
2022-08-17T14:45:32.994Z,37.96
2022-08-17T14:48:22.001Z,37.88
2022-08-17T14:51:10.533Z,38.10
2022-08-17T14:54:00.456Z,38.84
2022-08-17T14:56:48.996Z,38.90
2022-08-17T14:59:57.451Z,38.25
2022-08-17T15:02:48.559Z,38.59
2022-08-17T15:05:38.909Z,38.46
2022-08-17T15:08:28.248Z,38.40
2022-08-17T15:11:18.741Z,38.60
2022-08-17T15:14:07.536Z,38.93
2022-08-17T15:16:56.232Z,38.85
2022-08-17T15:19:45.357Z,38.42
2022-08-17T15:22:33.958Z,38.92
2022-08-17T15:25:23.092Z,38.47
2022-08-17T15:28:13.324Z,39.09
2022-08-17T15:31:01.911Z,39.38
2022-08-17T15:33:50.486Z,38.69
2022-08-17T15:36:40.677Z,38.92
2022-08-17T15:39:37.813Z,39.19
2022-08-17T15:42:26.697Z,39.51
2022-08-17T15:45:17.564Z,39.28
2022-08-17T15:48:06.724Z,39.14
2022-08-17T15:50:55.265Z,39.57
2022-08-17T15:53:45.965Z,38.96
2022-08-17T15:56:34.548Z,39.15
2022-08-17T15:59:23.055Z,39.40
2022-08-17T16:03:15.957Z,39.53
2022-08-17T16:05:27.118Z,38.48
2022-08-17T16:08:20.642Z,38.72
2022-08-17T16:11:10.605Z,38.98
2022-08-17T16:13:59.132Z,39.22
2022-08-17T16:16:47.693Z,39.27
2022-08-17T16:19:38.427Z,39.62
2022-08-17T16:22:32.271Z,39.74
2022-08-17T16:25:23.274Z,38.81
2022-08-17T16:28:36.413Z,39.46
2022-08-17T16:31:25.811Z,38.64
2022-08-17T16:34:17.266Z,38.63
2022-08-17T16:37:09.262Z,38.79
2022-08-17T16:40:00.263Z,39.58
2022-08-17T16:42:50.150Z,40.16
2022-08-17T16:45:40.700Z,40.44
2022-08-17T16:48:30.225Z,41.30
2022-08-17T16:51:21.437Z,41.55
2022-08-17T16:54:15.876Z,41.58
2022-08-17T16:57:06.350Z,41.55
2022-08-17T16:59:55.140Z,42.20
2022-08-17T17:02:46.614Z,42.91
2022-08-17T17:05:51.397Z,42.78
2022-08-17T17:08:49.550Z,42.78
2022-08-17T17:11:44.701Z,42.62
2022-08-17T17:14:37.210Z,42.63
2022-08-17T17:17:30.252Z,42.61
2022-08-17T17:20:21.738Z,43.35
2022-08-17T17:23:15.804Z,43.94
2022-08-17T17:26:13.081Z,44.20
2022-08-17T17:29:14.835Z,44.86
2022-08-17T17:32:09.406Z,45.23
2022-08-17T17:35:02.223Z,46.62
2022-08-17T17:37:51.525Z,47.91
2022-08-17T17:40:42.039Z,49.04
2022-08-17T17:43:40.328Z,49.83
2022-08-17T17:46:33.304Z,50.10
2022-08-17T17:49:21.894Z,49.92
2022-08-17T17:52:19.004Z,49.15
2022-08-17T17:55:16.022Z,48.50
2022-08-17T17:58:13.843Z,49.00
2022-08-17T18:01:20.068Z,50.82
2022-08-17T18:04:20.479Z,51.88
2022-08-17T18:07:17.973Z,51.21
2022-08-17T18:10:19.634Z,51.53
2022-08-17T18:13:26.669Z,51.57
2022-08-17T18:16:15.832Z,52.13
2022-08-17T18:19:06.118Z,52.16
2022-08-17T18:22:05.090Z,51.85
2022-08-17T18:24:57.284Z,51.98
2022-08-17T18:27:52.088Z,52.53
2022-08-17T18:30:40.743Z,53.37
2022-08-17T18:33:29.299Z,53.55
2022-08-17T18:36:28.887Z,53.86
2022-08-17T18:39:20.967Z,53.92
2022-08-17T18:42:25.804Z,54.20
2022-08-17T18:45:16.769Z,53.71
2022-08-17T18:48:06.921Z,53.98
2022-08-17T18:50:58.401Z,55.07
2022-08-17T18:53:46.980Z,54.20
2022-08-17T18:56:37.593Z,54.49
2022-08-17T18:59:29.533Z,54.76
2022-08-17T19:02:38.780Z,56.05
2022-08-17T19:05:35.614Z,56.84
2022-08-17T19:08:34.669Z,57.68
2022-08-17T19:11:28.416Z,57.99
2022-08-17T19:14:20.223Z,58.15
2022-08-17T19:17:12.966Z,58.63
2022-08-17T19:20:07.328Z,57.93
2022-08-17T19:23:15.289Z,57.79
2022-08-17T19:26:07.518Z,58.05
2022-08-17T19:29:22.401Z,58.38
2022-08-17T19:32:12.521Z,58.65
2022-08-17T19:35:02.086Z,59.04
2022-08-17T19:38:03.299Z,58.55
2022-08-17T19:41:02.076Z,58.50
2022-08-17T19:43:59.059Z,58.72
2022-08-17T19:46:56.280Z,59.21
2022-08-17T19:50:02.602Z,59.76
2022-08-17T19:52:55.169Z,59.78
2022-08-17T19:55:51.354Z,59.66
2022-08-17T19:58:54.854Z,59.98
2022-08-17T20:01:47.612Z,60.25
2022-08-17T20:04:42.349Z,60.49
2022-08-17T20:07:44.810Z,60.77
2022-08-17T20:10:40.433Z,61.11
2022-08-17T20:13:33.606Z,61.74
2022-08-17T20:16:22.687Z,62.56
2022-08-17T20:19:17.929Z,63.00
2022-08-17T20:22:11.729Z,63.22
2022-08-17T20:25:06.532Z,63.60
2022-08-17T20:28:02.906Z,63.83
2022-08-17T20:30:55.596Z,64.02
2022-08-17T20:33:45.390Z,64.12
2022-08-17T20:36:36.809Z,63.95
2022-08-17T20:39:35.980Z,64.51
2022-08-17T20:42:33.540Z,64.45
2022-08-17T20:45:49.979Z,64.82
2022-08-17T20:48:41.203Z,65.49
2022-08-17T20:51:33.220Z,66.37
2022-08-17T20:54:48.133Z,66.17
2022-08-17T20:57:48.780Z,66.48
2022-08-17T21:00:45.926Z,65.91
2022-08-17T21:04:01.386Z,65.80
2022-08-17T21:07:23.254Z,65.85
2022-08-17T21:10:16.474Z,65.82
2022-08-17T21:13:41.555Z,66.05
2022-08-17T21:16:41.285Z,66.28
2022-08-17T21:20:00.572Z,66.40
2022-08-17T21:23:02.813Z,66.71
2022-08-17T21:26:09.329Z,66.69
2022-08-17T21:29:29.918Z,66.86
2022-08-17T21:32:23.745Z,67.09
2022-08-17T21:35:27.224Z,67.35
2022-08-17T21:38:19.321Z,67.57
2022-08-17T21:41:21.264Z,67.02
2022-08-17T21:44:14.690Z,67.20
2022-08-17T21:47:16.568Z,65.73
2022-08-17T21:50:16.090Z,64.86
2022-08-17T21:53:05.612Z,63.62
2022-08-17T21:55:54.567Z,63.03
2022-08-17T21:58:48.426Z,62.87
2022-08-17T22:01:38.774Z,62.76
2022-08-17T22:04:29.992Z,62.62
2022-08-17T22:07:35.387Z,62.92
2022-08-17T22:10:33.270Z,62.48
2022-08-17T22:13:24.057Z,62.11
2022-08-17T22:16:28.618Z,62.04
2022-08-17T22:19:19.029Z,61.64
2022-08-17T22:22:10.385Z,61.03
2022-08-17T22:25:01.342Z,60.70
2022-08-17T22:27:54.399Z,60.20
2022-08-17T22:30:43.955Z,60.04
2022-08-17T22:33:40.675Z,60.44
2022-08-17T22:36:30.822Z,60.89
2022-08-17T22:39:41.394Z,61.58
2022-08-17T22:42:30.063Z,61.82
2022-08-17T22:45:18.587Z,62.53
2022-08-17T22:48:07.281Z,62.91
2022-08-17T22:51:13.285Z,63.62
2022-08-17T22:54:22.032Z,63.77
2022-08-17T22:57:31.775Z,63.08
2022-08-17T23:00:34.597Z,63.19
2022-08-17T23:03:25.225Z,63.45
2022-08-17T23:06:15.116Z,63.34
2022-08-17T23:09:06.026Z,62.95
2022-08-17T23:11:57.383Z,62.98
2022-08-17T23:14:48.007Z,63.60
